Map

Track Data

SID SEASON NUMBER BASIN SUBBASIN NAME ISO_TIME NATURE LAT LON WMO_WIND WMO_PRES WMO_AGENCY TRACK_TYPE DIST2LAND LANDFALL IFLAG USA_AGENCY USA_ATCF_ID USA_LAT USA_LON USA_RECORD USA_STATUS USA_WIND USA_PRES USA_SSHS USA_R34_NE USA_R34_SE USA_R34_SW USA_R34_NW USA_R50_NE USA_R50_SE USA_R50_SW USA_R50_NW USA_R64_NE USA_R64_SE USA_R64_SW USA_R64_NW USA_POCI USA_ROCI USA_RMW USA_EYE TOKYO_LAT TOKYO_LON TOKYO_GRADE TOKYO_WIND TOKYO_PRES TOKYO_R50_DIR TOKYO_R50_LONG TOKYO_R50_SHORT TOKYO_R30_DIR TOKYO_R30_LONG TOKYO_R30_SHORT TOKYO_LAND CMA_LAT CMA_LON CMA_CAT CMA_WIND CMA_PRES HKO_LAT HKO_LON HKO_CAT HKO_WIND HKO_PRES NEWDELHI_LAT NEWDELHI_LON NEWDELHI_GRADE NEWDELHI_WIND NEWDELHI_PRES NEWDELHI_CI NEWDELHI_DP NEWDELHI_POCI REUNION_LAT REUNION_LON REUNION_TYPE REUNION_WIND REUNION_PRES REUNION_TNUM REUNION_CI REUNION_RMW REUNION_R34_NE REUNION_R34_SE REUNION_R34_SW REUNION_R34_NW REUNION_R50_NE REUNION_R50_SE REUNION_R50_SW REUNION_R50_NW REUNION_R64_NE REUNION_R64_SE REUNION_R64_SW REUNION_R64_NW BOM_LAT BOM_LON BOM_TYPE BOM_WIND BOM_PRES BOM_TNUM BOM_CI BOM_RMW BOM_R34_NE BOM_R34_SE BOM_R34_SW BOM_R34_NW BOM_R50_NE BOM_R50_SE BOM_R50_SW BOM_R50_NW BOM_R64_NE BOM_R64_SE BOM_R64_SW BOM_R64_NW BOM_ROCI BOM_POCI BOM_EYE BOM_POS_METHOD BOM_PRES_METHOD NADI_LAT NADI_LON NADI_CAT NADI_WIND NADI_PRES WELLINGTON_LAT WELLINGTON_LON WELLINGTON_WIND WELLINGTON_PRES DS824_LAT DS824_LON DS824_STAGE DS824_WIND DS824_PRES TD9636_LAT TD9636_LON TD9636_STAGE TD9636_WIND TD9636_PRES TD9635_LAT TD9635_LON TD9635_WIND TD9635_PRES TD9635_ROCI NEUMANN_LAT NEUMANN_LON NEUMANN_CLASS NEUMANN_WIND NEUMANN_PRES MLC_LAT MLC_LON MLC_CLASS MLC_WIND MLC_PRES USA_GUST BOM_GUST BOM_GUST_PER REUNION_GUST REUNION_GUST_PER USA_SEAHGT USA_SEARAD_NE USA_SEARAD_SE USA_SEARAD_SW USA_SEARAD_NW STORM_SPEED STORM_DIR
1863121S07089 1863 11 SI MM NOT_NAMED 1863-04-30 18:00:00 NR -7.30000 88.8000 main 1284 1284 __________O___ -1 -7.30000 88.8000 7 6 258
1863121S07089 1863 11 SI MM NOT_NAMED 1863-04-30 21:00:00 NR -7.35955 88.5079 main 1318 1318 __________P___ -1 -7.35955 88.5079 7 6 259
1863121S07089 1863 11 SI MM NOT_NAMED 1863-05-01 00:00:00 NR -7.41519 88.2226 main 1346 1346 __________P___ -1 -7.41519 88.2226 7 6 259
1863121S07089 1863 11 SI MM NOT_NAMED 1863-05-01 03:00:00 NR -7.46324 87.9510 main 1371 1371 __________P___ -1 -7.46324 87.9510 7 5 261
1863121S07089 1863 11 SI MM NOT_NAMED 1863-05-01 06:00:00 NR -7.50000 87.7000 main 1400 1400 __________O___ -1 -7.50000 87.7000 7 5 263
1863121S07089 1863 11 SI MM NOT_NAMED 1863-05-01 09:00:00 NR -7.52399 87.4743 main 1419 1419 __________P___ -1 -7.52399 87.4743 7 4 264
1863121S07089 1863 11 SI MM NOT_NAMED 1863-05-01 12:00:00 NR -7.54241 87.2699 main 1438 1438 __________P___ -1 -7.54241 87.2699 7 4 264
1863121S07089 1863 11 SI MM NOT_NAMED 1863-05-01 15:00:00 NR -7.56463 87.0806 main 1463 1463 __________P___ -1 -7.56463 87.0806 7 4 261
1863121S07089 1863 11 SI MM NOT_NAMED 1863-05-01 18:00:00 NR -7.60000 86.9000 main 1482 1482 __________O___ -1 -7.60000 86.9000 7 4 254
1863121S07089 1863 11 SI MM NOT_NAMED 1863-05-01 21:00:00 NR -7.66465 86.7178 main 1507 1507 __________P___ -1 -7.66465 86.7178 7 4 248
1863121S07089 1863 11 SI MM NOT_NAMED 1863-05-02 00:00:00 NR -7.74245 86.5425 main 1526 1526 __________P___ -1 -7.74245 86.5425 7 4 245
1863121S07089 1863 11 SI MM NOT_NAMED 1863-05-02 03:00:00 NR -7.82403 86.3709 main 1541 1541 __________P___ -1 -7.82403 86.3709 7 4 245
1863121S07089 1863 11 SI MM NOT_NAMED 1863-05-02 06:00:00 NR -7.90000 86.2000 main 1566 1566 __________O___ -1 -7.90000 86.2000 7 4 249
1863121S07089 1863 11 SI MM NOT_NAMED 1863-05-02 09:00:00 NR -7.95717 86.0250 main 1591 1591 __________P___ -1 -7.95717 86.0250 7 4 253
1863121S07089 1863 11 SI MM NOT_NAMED 1863-05-02 12:00:00 NR -8.00747 85.8500 main 1610 1610 __________P___ -1 -8.00747 85.8500 7 4 254
1863121S07089 1863 11 SI MM NOT_NAMED 1863-05-02 15:00:00 NR -8.05404 85.6750 main 1625 1625 __________P___ -1 -8.05404 85.6750 7 4 255
1863121S07089 1863 11 SI MM NOT_NAMED 1863-05-02 18:00:00 NR -8.10000 85.5000 main 1645 1645 __________O___ -1 -8.10000 85.5000 7 3 256
1863121S07089 1863 11 SI MM NOT_NAMED 1863-05-02 21:00:00 NR -8.11686 85.4260 main 1655 1653 __________P___ -1 -8.11686 85.4260 7 2 257
1863121S07089 1863 11 SI MM NOT_NAMED 1863-05-03 00:00:00 NR -8.13888 85.3365 main 1653 1653 __________P___ -1 -8.13888 85.3365 7 3 255
1863121S07089 1863 11 SI MM NOT_NAMED 1863-05-03 03:00:00 NR -8.19151 85.1538 main 1660 1653 __________P___ -1 -8.19151 85.1538 7 6 253
1863121S07089 1863 11 SI MM NOT_NAMED 1863-05-03 06:00:00 NR -8.30000 84.8000 main 1658 1651 __________O___ -1 -8.30000 84.8000 7 10 254
1863121S07089 1863 11 SI MM NOT_NAMED 1863-05-03 09:00:00 NR -8.46894 84.1755 main 1662 1654 __________P___ -1 -8.46894 84.1755 7 15 254
1863121S07089 1863 11 SI MM NOT_NAMED 1863-05-03 12:00:00 NR -8.69617 83.3796 main 1665 1661 __________P___ -1 -8.69617 83.3796 7 17 253
1863121S07089 1863 11 SI MM NOT_NAMED 1863-05-03 15:00:00 NR -8.97515 82.4939 main 1682 1680 __________P___ -1 -8.97515 82.4939 7 19 251
1863121S07089 1863 11 SI MM NOT_NAMED 1863-05-03 18:00:00 NR -9.30000 81.6000 main 1706 1706 __________O___ -1 -9.30000 81.6000 7 19 247
1863121S07089 1863 11 SI MM NOT_NAMED 1863-05-03 21:00:00 NR -9.70215 80.7178 main 1748 1748 __________P___ -1 -9.70215 80.7178 7 19 244
1863121S07089 1863 11 SI MM NOT_NAMED 1863-05-04 00:00:00 NR -10.1385 79.8572 main 1794 1794 __________P___ -1 -10.1385 79.8572 7 18 242
1863121S07089 1863 11 SI MM NOT_NAMED 1863-05-04 03:00:00 NR -10.5555 79.0927 main 1856 1856 __________P___ -1 -10.5555 79.0927 7 15 240
1863121S07089 1863 11 SI MM NOT_NAMED 1863-05-04 06:00:00 NR -10.9000 78.5000 main 1896 1896 __________O___ -1 -10.9000 78.5000 7 11 239
1863121S07089 1863 11 SI MM NOT_NAMED 1863-05-04 09:00:00 NR -11.1028 78.1571 main 1923 1923 __________P___ -1 -11.1028 78.1571 7 6 237
1863121S07089 1863 11 SI MM NOT_NAMED 1863-05-04 12:00:00 NR -11.2311 77.9888 main 1937 1937 __________P___ -1 -11.2311 77.9888 7 3 227
1863121S07089 1863 11 SI MM NOT_NAMED 1863-05-04 15:00:00 NR -11.3189 77.9262 main 1950 1950 __________P___ -1 -11.3189 77.9262 7 2 207
1863121S07089 1863 11 SI MM NOT_NAMED 1863-05-04 18:00:00 NR -11.4000 77.9000 main 1961 1961 __________O___ -1 -11.4000 77.9000 7 3 211
1863121S07089 1863 11 SI MM NOT_NAMED 1863-05-04 21:00:00 NR -11.5331 77.7912 main 1974 1974 __________P___ -1 -11.5331 77.7912 7 3 216
1863121S07089 1863 11 SI MM NOT_NAMED 1863-05-05 00:00:00 NR -11.6650 77.7050 main 1997 1997 __________P___ -1 -11.6650 77.7050 7 3 210
1863121S07089 1863 11 SI MM NOT_NAMED 1863-05-05 03:00:00 NR -11.7894 77.6412 main 2010 2010 __________P___ -1 -11.7894 77.6412 7 3 204
1863121S07089 1863 11 SI MM NOT_NAMED 1863-05-05 06:00:00 NR -11.9000 77.6000 main 2021 2021 __________O___ -1 -11.9000 77.6000 7 2 200
1863121S07089 1863 11 SI MM NOT_NAMED 1863-05-05 09:00:00 NR -11.9894 77.5703 main 2032 2032 __________P___ -1 -11.9894 77.5703 7 2 191
1863121S07089 1863 11 SI MM NOT_NAMED 1863-05-05 12:00:00 NR -12.0650 77.5625 main 2043 2043 __________P___ -1 -12.0650 77.5625 7 1 0
1863121S07089 1863 11 SI MM NOT_NAMED 1863-05-05 15:00:00 NR -12.1331 77.5734 main 2043 2043 __________P___ -1 -12.1331 77.5734 7 1 161
1863121S07089 1863 11 SI MM NOT_NAMED 1863-05-05 18:00:00 NR -12.2000 77.6000 main 2054 2054 __________O___ -1 -12.2000 77.6000 7 2 158
1863121S07089 1863 11 SI MM NOT_NAMED 1863-05-05 21:00:00 NR -12.2750 77.6356 main 2066 2064 __________P___ -1 -12.2750 77.6356 7 2 153
1863121S07089 1863 11 SI MM NOT_NAMED 1863-05-06 00:00:00 NR -12.3500 77.6850 main 2075 2075 __________P___ -1 -12.3500 77.6850 7 2 146
1863121S07089 1863 11 SI MM NOT_NAMED 1863-05-06 03:00:00 NR -12.4250 77.7419 main 2075 2073 __________P___ -1 -12.4250 77.7419 7 2 144
1863121S07089 1863 11 SI MM NOT_NAMED 1863-05-06 06:00:00 NR -12.5000 77.8000 main 2084 2084 __________O___ -1 -12.5000 77.8000 7 2 146
1863121S07089 1863 11 SI MM NOT_NAMED 1863-05-06 09:00:00 NR -12.5791 77.8500 main 2094 2094 __________P___ -1 -12.5791 77.8500 7 2 148
1863121S07089 1863 11 SI MM NOT_NAMED 1863-05-06 12:00:00 NR -12.6575 77.9000 main 2105 2105 __________P___ -1 -12.6575 77.9000 7 2 148
1863121S07089 1863 11 SI MM NOT_NAMED 1863-05-06 15:00:00 NR -12.7322 77.9500 main 2103 2103 __________P___ -1 -12.7322 77.9500 7 2 146
1863121S07089 1863 11 SI MM NOT_NAMED 1863-05-06 18:00:00 NR -12.8000 78.0000 main 2114 2114 __________O___ -1 -12.8000 78.0000 7 1 144
1863121S07089 1863 11 SI MM NOT_NAMED 1863-05-06 21:00:00 NR -12.8165 78.0137 main 2114 2114 __________P___ -1 -12.8165 78.0137 7 0 125
1863121S07089 1863 11 SI MM NOT_NAMED 1863-05-07 00:00:00 NR -12.8323 78.0330 main 2114 2113 __________P___ -1 -12.8323 78.0330 7 1 133
1863121S07089 1863 11 SI MM NOT_NAMED 1863-05-07 03:00:00 NR -12.8820 78.0858 main 2124 2123 __________P___ -1 -12.8820 78.0858 7 2 136
1863121S07089 1863 11 SI MM NOT_NAMED 1863-05-07 06:00:00 NR -13.0000 78.2000 main 2134 2134 __________O___ -1 -13.0000 78.2000 7 5 140
1863121S07089 1863 11 SI MM NOT_NAMED 1863-05-07 09:00:00 NR -13.2485 78.4058 main 2153 2153 __________P___ -1 -13.2485 78.4058 7 7 141
1863121S07089 1863 11 SI MM NOT_NAMED 1863-05-07 12:00:00 NR -13.5627 78.6744 main 2194 2194 __________P___ -1 -13.5627 78.6744 7 9 139
1863121S07089 1863 11 SI MM NOT_NAMED 1863-05-07 15:00:00 NR -13.8954 78.9808 main 2225 2225 __________P___ -1 -13.8954 78.9808 7 9 136
1863121S07089 1863 11 SI MM NOT_NAMED 1863-05-07 18:00:00 NR -14.2000 79.3000 main 2256 2255 __________O___ -1 -14.2000 79.3000 7 8 132
1863121S07089 1863 11 SI MM NOT_NAMED 1863-05-07 21:00:00 NR -14.4406 79.6112 main 2276 2276 __________P___ -1 -14.4406 79.6112 7 7 126
1863121S07089 1863 11 SI MM NOT_NAMED 1863-05-08 00:00:00 NR -14.6251 79.9128 main 2297 2297 __________P___ -1 -14.6251 79.9128 7 7 120
1863121S07089 1863 11 SI MM NOT_NAMED 1863-05-08 03:00:00 NR -14.7720 80.2079 main 2319 2319 __________P___ -1 -14.7720 80.2079 7 6 116
1863121S07089 1863 11 SI MM NOT_NAMED 1863-05-08 06:00:00 NR -14.9000 80.5000 main 2330 __________O___ -1 -14.9000 80.5000 7 6 114

About IBTrACS Database

This database is a web-friendly format of International Best Track Archive for Climate Stewardship (IBTrACS), a global best track data archive curated by NOAA dating back to 1842.

Updated: 2021-10-25